Terminal Aerodrome Forecast
Issued by NWS Quad Cities IA IL

Home | Current Version | Previous Version | Text Only | Print | Product List | Glossary On
Versions: 1 2 3 4 5 6 7 8 9 10 11 12 13 14 15 16 17
000
FTUS43 KDVN 171800 AAB
TAFMLI
TAF AMD
KMLI 171841Z 1719/1818 29009KT P6SM SCT020
     FM172000 31008KT P6SM SCT020
     FM180100 34003KT P6SM SCT250
     FM180700 36003KT P6SM SCT100 OVC250
     FM181300 02003KT P6SM BKN150 OVC250=

USA.gov is the U.S. government's official web portal to all federal, state and local government web resources and services.